Time;durP1;ratioP1;P1;durP2;ratioP2;P2;SDS_P1;SDS_P2;PMS_P1;PMS_P2;Temp;Humidity;BMP_temperature;BMP_pressure;BME280_temperature;BME280_humidity;BME280_pressure;Samples;Min_cycle;Max_cycle;Signal;HPM_P1;HPM_P2
2024/02/03 00:01:28;;;;;;;39.47;22.27;;;8.90;99.90;;;8.70;98.01;101544.03;5017862;28;20049;-80
2024/02/03 00:03:55;;;;;;;40.47;23.10;;;8.90;99.90;;;8.68;98.14;101535.38;5034276;28;20045;-80
2024/02/03 00:06:25;;;;;;;42.47;22.42;;;8.90;99.90;;;8.67;98.28;101531.06;5035540;28;20412;-80
2024/02/03 00:08:53;;;;;;;41.75;22.83;;;8.90;99.90;;;8.68;98.39;101530.06;5035110;28;20513;-80
2024/02/03 00:11:24;;;;;;;42.28;22.90;;;8.90;99.90;;;8.69;98.55;101536.22;5006579;28;20072;-80
2024/02/03 00:13:52;;;;;;;39.60;22.15;;;8.90;99.90;;;8.72;98.55;101543.84;5000820;28;20532;-80
2024/02/03 00:16:20;;;;;;;38.28;22.50;;;8.90;99.90;;;8.75;98.44;101540.84;5017540;28;20052;-80
2024/02/03 00:18:48;;;;;;;40.95;23.40;;;8.90;99.90;;;8.76;98.23;101537.19;5024728;28;20045;-80
2024/02/03 00:21:15;;;;;;;41.92;22.58;;;8.90;99.90;;;8.69;98.09;101529.06;5031909;28;20049;-80
2024/02/03 00:23:48;;;;;;;40.78;23.50;;;8.90;99.90;;;8.71;98.50;101534.22;5000674;28;20582;-80
2024/02/03 00:26:16;;;;;;;42.95;23.30;;;8.90;99.90;;;8.71;98.53;101529.72;5034614;28;20053;-80
2024/02/03 00:28:43;;;;;;;46.78;24.10;;;8.90;99.90;;;8.71;98.60;101535.03;5034726;28;20042;-80
2024/02/03 00:31:12;;;;;;;46.70;23.40;;;8.90;99.90;;;8.75;98.50;101531.03;5013664;28;20053;-80
2024/02/03 00:33:40;;;;;;;39.08;22.08;;;8.90;99.90;;;8.77;98.35;101517.56;5046341;28;20042;-80
2024/02/03 00:36:08;;;;;;;34.03;20.48;;;8.90;99.90;;;8.75;98.25;101523.06;5018220;28;20404;-80
2024/02/03 00:38:36;;;;;;;34.30;19.67;;;9.00;99.90;;;8.77;98.18;101517.56;5034096;28;20535;-80
2024/02/03 00:41:05;;;;;;;30.27;18.38;;;9.00;99.90;;;8.77;98.31;101528.19;5016470;28;20037;-80
2024/02/03 00:43:33;;;;;;;35.25;19.13;;;9.00;99.90;;;8.75;98.19;101531.03;5016825;28;20045;-80
2024/02/03 00:46:01;;;;;;;31.48;18.20;;;9.00;99.90;;;8.71;98.28;101529.72;5017054;28;20459;-80
2024/02/03 00:48:28;;;;;;;34.15;20.05;;;8.90;99.90;;;8.73;98.50;101527.69;5034951;28;20051;-81
2024/02/03 00:50:56;;;;;;;33.92;20.10;;;8.90;99.90;;;8.73;98.51;101522.38;5016169;28;20038;-81
2024/02/03 00:53:23;;;;;;;32.10;19.48;;;8.90;99.90;;;8.75;98.61;101515.09;5033965;28;20421;-80
2024/02/03 00:55:51;;;;;;;36.05;21.27;;;9.00;99.90;;;8.74;98.87;101523.25;5034718;28;20037;-80
2024/02/03 00:58:20;;;;;;;42.13;22.35;;;9.00;99.90;;;8.73;98.79;101525.03;5034726;28;20045;-80
2024/02/03 01:00:48;;;;;;;44.10;23.13;;;9.00;99.90;;;8.73;98.82;101522.38;4999757;28;20076;-80
2024/02/03 01:03:16;;;;;;;38.65;21.40;;;8.90;99.90;;;8.75;99.06;101532.88;5017506;28;20050;-81
2024/02/03 01:05:44;;;;;;;32.72;19.90;;;9.00;99.90;;;8.75;98.95;101525.72;5016702;28;20049;-81
2024/02/03 01:08:12;;;;;;;33.55;19.85;;;9.00;99.90;;;8.75;98.85;101520.41;5000400;28;20049;-81
2024/02/03 01:10:42;;;;;;;32.90;19.33;;;9.00;99.90;;;8.80;98.79;101524.38;4984812;28;20045;-81
2024/02/03 01:13:11;;;;;;;32.45;19.50;;;9.00;99.90;;;8.79;98.52;101523.56;5034236;28;20049;-81
2024/02/03 01:15:40;;;;;;;31.20;19.52;;;9.00;99.90;;;8.80;98.80;101533.19;5015659;28;20051;-81
2024/02/03 01:18:08;;;;;;;30.85;18.92;;;9.00;99.90;;;8.81;98.43;101537.50;5033185;28;20091;-81
2024/02/03 01:20:36;;;;;;;29.77;17.98;;;9.00;99.90;;;8.85;98.30;101537.97;5022854;28;20054;-80
2024/02/03 01:23:05;;;;;;;28.02;17.65;;;9.00;99.90;;;8.83;98.24;101535.47;5014367;28;20053;-80
2024/02/03 01:25:32;;;;;;;32.45;18.60;;;9.00;99.90;;;8.85;98.10;101543.31;5014050;28;20045;-80
2024/02/03 01:28:00;;;;;;;28.63;17.60;;;9.00;99.90;;;8.85;98.17;101537.97;5012673;28;20099;-80
2024/02/03 01:30:31;;;;;;;31.27;18.58;;;9.00;99.90;;;8.86;98.15;101532.47;5026905;28;20087;-80
2024/02/03 01:33:00;;;;;;;34.30;19.73;;;9.00;99.90;;;8.88;98.37;101537.63;5033865;28;20037;-80
2024/02/03 01:35:30;;;;;;;34.47;20.00;;;9.00;99.90;;;8.87;98.05;101527.97;5043820;28;20500;-80
2024/02/03 01:37:57;;;;;;;30.27;19.15;;;9.00;99.90;;;8.84;97.96;101534.50;4980252;28;20521;-80
2024/02/03 01:40:27;;;;;;;32.75;19.10;;;9.00;99.90;;;8.87;98.13;101530.63;5025784;28;20489;-80
2024/02/03 01:43:00;;;;;;;33.30;20.13;;;9.00;99.90;;;8.86;98.29;101527.16;4983010;28;20052;-81
2024/02/03 01:45:28;;;;;;;33.25;20.20;;;9.00;99.90;;;8.87;97.94;101530.63;4999660;28;20096;-81
2024/02/03 01:47:57;;;;;;;32.88;19.13;;;9.00;99.90;;;8.87;97.93;101534.13;5033963;28;20061;-81
2024/02/03 01:50:27;;;;;;;29.73;18.02;;;9.00;99.90;;;8.87;98.08;101531.47;5002106;28;20148;-80
2024/02/03 01:52:56;;;;;;;32.17;18.67;;;9.00;99.90;;;8.80;98.21;101525.19;5037782;28;20042;-80
2024/02/03 01:55:25;;;;;;;28.45;17.67;;;9.00;99.90;;;8.81;98.53;101529.50;5019409;28;20091;-80
2024/02/03 01:57:54;;;;;;;31.35;18.83;;;9.00;99.90;;;8.78;98.56;101527.19;5036923;28;20445;-80
2024/02/03 02:00:23;;;;;;;29.13;17.67;;;9.00;99.90;;;8.81;98.79;101534.00;5037171;28;20041;-80
2024/02/03 02:02:51;;;;;;;32.15;18.60;;;9.00;99.90;;;8.82;98.66;101533.81;5019510;28;20095;-80
2024/02/03 02:05:19;;;;;;;36.00;20.67;;;9.00;99.90;;;8.82;98.36;101535.66;5020001;28;20041;-80
2024/02/03 02:07:49;;;;;;;31.25;19.77;;;9.00;99.90;;;8.83;98.78;101534.66;5036607;28;20553;-80
2024/02/03 02:10:20;;;;;;;32.30;20.87;;;9.10;99.90;;;8.83;98.78;101524.00;5049028;28;20059;-80
2024/02/03 02:12:50;;;;;;;33.30;20.17;;;9.00;99.90;;;8.81;98.83;101518.88;4999787;28;20061;-80
2024/02/03 02:15:19;;;;;;;37.15;21.27;;;9.00;99.90;;;8.82;98.88;101533.00;4984160;28;20095;-80
2024/02/03 02:17:47;;;;;;;35.60;20.92;;;9.00;99.90;;;8.85;98.62;101525.50;4999829;28;20046;-80
2024/02/03 02:20:17;;;;;;;32.85;20.33;;;9.10;99.90;;;8.88;98.65;101519.00;5031613;28;20561;-80
2024/02/03 02:22:45;;;;;;;33.33;20.33;;;9.10;99.90;;;8.86;98.69;101513.84;5019327;28;20489;-80
2024/02/03 02:25:12;;;;;;;33.17;20.58;;;9.10;99.90;;;8.88;98.38;101519.00;5036482;28;20038;-80
2024/02/03 02:27:40;;;;;;;31.52;19.98;;;9.10;99.90;;;8.89;98.43;101520.69;5019554;28;20105;-80
2024/02/03 02:30:10;;;;;;;35.00;21.15;;;9.10;99.90;;;8.88;98.51;101514.53;5030742;28;20519;-81
2024/02/03 02:32:38;;;;;;;35.05;19.98;;;9.10;99.90;;;8.87;98.39;101512.03;5015761;28;20046;-81
2024/02/03 02:35:07;;;;;;;38.22;21.55;;;9.10;99.90;;;8.88;98.44;101521.66;5019070;28;20041;-81
2024/02/03 02:37:36;;;;;;;36.97;20.55;;;9.10;99.90;;;8.87;98.70;101514.69;4986437;28;20091;-81
2024/02/03 02:40:04;;;;;;;31.08;19.38;;;9.10;99.90;;;8.86;98.73;101513.84;5035832;28;20511;-81
2024/02/03 02:42:32;;;;;;;35.75;20.48;;;9.10;99.90;;;8.87;98.78;101504.03;5036324;28;20424;-80
2024/02/03 02:44:59;;;;;;;32.70;19.60;;;9.10;99.90;;;8.90;98.73;101506.38;5036004;28;20056;-80
2024/02/03 02:47:27;;;;;;;31.40;18.85;;;9.10;99.90;;;8.93;98.45;101506.84;5018469;28;20045;-80
2024/02/03 02:49:54;;;;;;;29.17;18.40;;;9.10;99.90;;;8.93;98.25;101512.16;5036019;28;20042;-80
2024/02/03 02:52:22;;;;;;;33.70;20.23;;;9.10;99.90;;;8.92;98.33;101496.38;5018404;28;20060;-80
2024/02/03 02:54:52;;;;;;;35.65;19.08;;;9.10;99.90;;;8.92;98.15;101483.06;5018470;28;20038;-81
2024/02/03 02:57:20;;;;;;;31.38;19.77;;;9.10;99.90;;;8.90;98.12;101482.41;5017925;28;20045;-80
2024/02/03 02:59:47;;;;;;;29.67;18.00;;;9.10;99.90;;;8.91;98.25;101484.06;5018403;28;20041;-80
2024/02/03 03:02:15;;;;;;;31.70;19.20;;;9.10;99.90;;;8.87;98.38;101485.41;5035803;28;20505;-81
2024/02/03 03:04:42;;;;;;;34.30;19.73;;;9.10;99.90;;;8.83;98.58;101482.28;5035555;28;20045;-81
2024/02/03 03:07:14;;;;;;;34.58;20.33;;;9.10;99.90;;;8.86;98.52;101481.09;5043337;28;20099;-81
2024/02/03 03:09:42;;;;;;;33.65;20.60;;;9.10;99.90;;;8.87;98.59;101482.75;5055627;28;20048;-81
2024/02/03 03:12:12;;;;;;;35.50;20.27;;;9.10;99.90;;;8.87;98.66;101475.59;5021339;28;20128;-81
2024/02/03 03:14:40;;;;;;;31.67;19.90;;;9.10;99.90;;;8.91;98.67;101489.41;5055872;28;20033;-81
2024/02/03 03:17:07;;;;;;;33.78;20.65;;;9.10;99.90;;;8.95;98.57;101488.88;5030151;28;20053;-81
2024/02/03 03:19:38;;;;;;;35.83;21.20;;;9.10;99.90;;;8.96;98.37;101487.84;5035692;28;20037;-80
2024/02/03 03:22:07;;;;;;;34.33;20.47;;;9.10;99.90;;;8.95;98.03;101488.03;5002045;28;20467;-80
2024/02/03 03:24:34;;;;;;;31.90;20.60;;;9.10;99.90;;;8.93;98.00;101482.91;5018011;28;20378;-80
2024/02/03 03:27:02;;;;;;;29.95;19.20;;;9.10;99.90;;;8.97;97.86;101468.22;5024180;28;20120;-80
2024/02/03 03:29:31;;;;;;;33.72;19.17;;;9.20;99.90;;;9.00;97.32;101465.22;5037825;28;20108;-80
2024/02/03 03:31:58;;;;;;;35.70;21.05;;;9.20;99.90;;;8.97;97.22;101470.06;5055404;28;20045;-80
2024/02/03 03:34:26;;;;;;;37.58;21.65;;;9.10;99.90;;;8.99;97.53;101478.72;5037755;28;20043;-81
2024/02/03 03:36:53;;;;;;;31.10;20.02;;;9.20;99.90;;;8.98;97.15;101477.88;5053579;28;20048;-80
2024/02/03 03:39:21;;;;;;;32.67;20.90;;;9.20;99.90;;;8.98;97.18;101472.56;5032715;28;20067;-80
2024/02/03 03:41:48;;;;;;;34.05;20.80;;;9.20;99.90;;;9.01;97.22;101476.69;5001363;28;20045;-81
2024/02/03 03:44:16;;;;;;;34.17;19.90;;;9.20;99.90;;;9.02;97.24;101492.47;5018189;28;20042;-81
2024/02/03 03:46:44;;;;;;;32.10;19.60;;;9.20;99.90;;;9.01;97.04;101487.34;5038202;28;20538;-81
2024/02/03 03:49:12;;;;;;;32.65;20.00;;;9.20;99.90;;;9.00;96.97;101483.84;5037599;28;20419;-80
2024/02/03 03:51:40;;;;;;;28.85;19.00;;;9.20;99.90;;;9.00;96.91;101483.84;5035607;28;20091;-80
2024/02/03 03:54:07;;;;;;;31.13;19.33;;;9.20;99.90;;;9.01;96.86;101482.00;5017594;28;20049;-80
2024/02/03 03:56:37;;;;;;;31.33;19.08;;;9.20;99.90;;;8.99;96.87;101484.03;5018204;28;20042;-80
2024/02/03 03:59:04;;;;;;;28.90;18.17;;;9.20;99.90;;;9.00;97.07;101480.38;5049827;28;20053;-80
2024/02/03 04:01:32;;;;;;;29.45;18.17;;;9.20;99.90;;;9.00;96.81;101486.50;5017565;28;20049;-80
2024/02/03 04:04:01;;;;;;;29.63;18.23;;;9.20;99.90;;;9.05;96.83;101483.31;5035011;28;20412;-80
2024/02/03 04:06:28;;;;;;;29.17;17.48;;;9.20;99.90;;;9.08;96.63;101485.66;5017126;28;20472;-81
2024/02/03 04:08:57;;;;;;;29.70;18.80;;;9.20;99.90;;;9.08;96.30;101480.31;5034341;28;20084;-81
2024/02/03 04:11:24;;;;;;;30.40;19.23;;;9.20;99.90;;;9.06;96.12;101479.66;5016693;28;20049;-81
2024/02/03 04:13:52;;;;;;;30.15;18.27;;;9.20;99.90;;;9.06;96.13;101471.66;5033986;28;20095;-81
2024/02/03 04:16:19;;;;;;;31.27;18.20;;;9.20;99.90;;;9.06;96.23;101473.50;5035272;28;20555;-81
2024/02/03 04:18:47;;;;;;;34.08;19.00;;;9.20;99.90;;;9.07;96.23;101465.34;5034788;28;20049;-81
2024/02/03 04:21:16;;;;;;;27.20;17.95;;;9.20;99.90;;;9.08;96.36;101455.53;5017107;28;20045;-81
2024/02/03 04:23:43;;;;;;;30.38;18.33;;;9.20;99.90;;;9.02;96.33;101460.53;5017217;28;20128;-81
2024/02/03 04:26:12;;;;;;;29.95;19.02;;;9.20;99.90;;;9.03;96.50;101470.22;5049860;28;20045;-81
2024/02/03 04:28:39;;;;;;;30.77;18.63;;;9.20;99.90;;;9.06;96.56;101454.88;5052579;28;20060;-81
2024/02/03 04:31:07;;;;;;;31.83;18.65;;;9.20;99.90;;;9.05;96.62;101455.88;5024829;28;20095;-81
2024/02/03 04:33:34;;;;;;;32.75;19.40;;;9.20;99.90;;;9.04;96.68;101460.38;5016337;28;20501;-81
2024/02/03 04:36:04;;;;;;;30.95;19.25;;;9.20;99.90;;;9.05;96.70;101451.41;5034775;28;20053;-80
2024/02/03 04:38:33;;;;;;;27.92;17.10;;;9.20;99.90;;;9.05;96.78;101455.88;5033976;28;20045;-80
2024/02/03 04:41:00;;;;;;;33.42;19.02;;;9.20;99.90;;;9.05;96.73;101451.41;4999298;28;20058;-80
2024/02/03 04:43:28;;;;;;;29.42;17.90;;;9.20;99.90;;;9.01;97.02;101456.22;5016355;28;20053;-80
2024/02/03 04:45:55;;;;;;;32.20;18.60;;;9.20;99.90;;;9.00;97.41;101459.06;5034401;28;20040;-80
2024/02/03 04:48:22;;;;;;;30.60;18.42;;;9.20;99.90;;;9.01;97.42;101466.88;5064340;28;20044;-80
2024/02/03 04:50:50;;;;;;;27.77;17.50;;;9.20;99.90;;;9.00;97.49;101456.41;5008931;28;20037;-80
2024/02/03 04:53:21;;;;;;;31.17;18.85;;;9.20;99.90;;;9.00;97.76;101445.78;4999917;28;20136;-80
2024/02/03 04:55:50;;;;;;;29.80;18.23;;;9.20;99.90;;;9.05;97.51;101447.91;5017645;28;20045;-80
2024/02/03 04:58:18;;;;;;;31.48;17.95;;;9.20;99.90;;;9.03;97.65;101442.78;5034110;28;20129;-80
2024/02/03 05:00:46;;;;;;;32.05;18.20;;;9.20;99.90;;;9.06;97.57;101436.25;5015757;28;20082;-81
2024/02/03 05:03:14;;;;;;;27.95;17.20;;;9.20;99.90;;;9.03;97.65;101432.94;5034266;28;20100;-81
2024/02/03 05:05:42;;;;;;;31.25;17.90;;;9.20;99.90;;;9.01;97.72;101429.63;5032500;28;20041;-81
2024/02/03 05:08:09;;;;;;;29.92;18.00;;;9.20;99.90;;;9.00;97.73;101435.13;5016058;28;20129;-81
2024/02/03 05:10:37;;;;;;;35.30;19.00;;;9.20;99.90;;;9.02;97.89;101435.78;5016247;28;20124;-80
2024/02/03 05:13:06;;;;;;;29.63;17.25;;;9.20;99.90;;;9.03;97.85;101432.13;5016838;28;20509;-80
2024/02/03 05:15:33;;;;;;;27.67;17.25;;;9.20;99.90;;;9.02;98.02;101431.28;5033198;28;20103;-80
2024/02/03 05:18:01;;;;;;;28.52;18.42;;;9.20;99.90;;;9.02;98.06;101433.94;5015944;28;20049;-80
2024/02/03 05:20:28;;;;;;;30.40;17.48;;;9.20;99.90;;;9.06;98.10;101436.25;5016096;28;20500;-80
2024/02/03 05:22:56;;;;;;;33.75;18.92;;;9.20;99.90;;;9.09;97.67;101439.41;5016510;28;20115;-80
2024/02/03 05:25:24;;;;;;;35.15;19.58;;;9.20;99.90;;;9.08;97.61;101439.56;5036873;28;20037;-81
2024/02/03 05:27:51;;;;;;;39.58;21.60;;;9.20;99.90;;;9.05;97.73;101450.56;5037660;28;20041;-80
2024/02/03 05:30:20;;;;;;;42.25;21.90;;;9.20;99.90;;;9.05;97.90;101446.06;5020442;28;20072;-80
2024/02/03 05:32:47;;;;;;;40.33;22.58;;;9.20;99.90;;;9.04;97.92;101449.75;5036572;28;20073;-81
2024/02/03 05:35:15;;;;;;;37.20;22.13;;;9.20;99.90;;;9.05;98.00;101434.59;5035364;28;20041;-80
2024/02/03 05:37:42;;;;;;;40.85;21.83;;;9.20;99.90;;;9.02;98.06;101441.09;5018139;28;20077;-80
2024/02/03 05:40:11;;;;;;;38.75;21.45;;;9.20;99.90;;;9.06;98.34;101437.06;5017719;28;20563;-80
2024/02/03 05:42:39;;;;;;;39.97;22.20;;;9.20;99.90;;;9.06;98.49;101431.75;5018138;28;20494;-80
2024/02/03 05:45:08;;;;;;;39.30;21.65;;;9.20;99.90;;;9.07;98.50;101432.56;5018388;28;20108;-80
2024/02/03 05:47:37;;;;;;;38.28;22.20;;;9.20;99.90;;;9.10;98.42;101445.53;5037549;28;20129;-80
2024/02/03 05:50:06;;;;;;;37.33;21.30;;;9.30;99.90;;;9.09;98.25;101441.22;5019847;28;20049;-81
2024/02/03 05:52:33;;;;;;;44.13;22.88;;;9.30;99.90;;;9.09;98.45;101436.72;5037593;28;20045;-81
2024/02/03 05:55:01;;;;;;;38.20;21.50;;;9.30;99.90;;;9.07;98.63;101441.38;5037056;28;20439;-81
2024/02/03 05:57:28;;;;;;;36.55;21.23;;;9.30;99.90;;;9.06;98.78;101434.41;5000027;28;20041;-81
2024/02/03 05:59:55;;;;;;;39.13;21.27;;;9.30;99.90;;;9.09;98.75;101439.41;4984718;28;20042;-81
2024/02/03 06:02:23;;;;;;;36.38;20.95;;;9.30;99.90;;;9.09;98.93;101446.56;5018081;28;20421;-81
2024/02/03 06:04:52;;;;;;;40.83;22.20;;;9.30;99.90;;;9.08;99.09;101439.56;5000548;28;20037;-81
2024/02/03 06:07:20;;;;;;;39.10;21.50;;;9.30;99.90;;;9.07;99.20;101438.72;5057300;28;20047;-80
2024/02/03 06:09:47;;;;;;;39.17;20.83;;;9.30;99.90;;;9.08;99.33;101427.09;5021299;28;20069;-80
2024/02/03 06:12:15;;;;;;;42.15;23.80;;;9.30;99.90;;;9.10;99.42;101419.75;5037188;28;20049;-81
2024/02/03 06:14:43;;;;;;;40.08;22.67;;;9.30;99.90;;;9.11;99.45;101426.72;5019734;28;20084;-81
2024/02/03 06:17:11;;;;;;;42.60;22.55;;;9.30;99.90;;;9.14;99.17;101422.91;5020111;28;20038;-81
2024/02/03 06:19:39;;;;;;;38.72;22.25;;;9.30;99.90;;;9.13;99.30;101418.59;5037608;28;20037;-81
2024/02/03 06:22:08;;;;;;;36.58;22.20;;;9.30;99.90;;;9.15;99.35;101428.03;5003387;28;20060;-81
2024/02/03 06:24:36;;;;;;;34.80;21.42;;;9.40;99.90;;;9.16;99.22;101426.19;5037029;28;20054;-81
2024/02/03 06:27:04;;;;;;;44.63;23.15;;;9.30;99.90;;;9.19;99.25;101418.69;5039274;28;20057;-81
2024/02/03 06:29:33;;;;;;;37.67;21.65;;;9.30;99.90;;;9.20;99.22;101423.00;5023380;28;20531;-81
2024/02/03 06:32:00;;;;;;;38.10;22.27;;;9.40;99.90;;;9.19;99.07;101410.69;5022835;28;20049;-81
2024/02/03 06:34:28;;;;;;;42.58;23.25;;;9.40;99.90;;;9.18;98.89;101409.06;5021993;28;20440;-81
2024/02/03 06:36:55;;;;;;;40.33;23.30;;;9.40;99.90;;;9.16;99.09;101411.06;5021310;28;20042;-81
2024/02/03 06:39:24;;;;;;;34.63;20.25;;;9.40;99.90;;;9.19;99.15;101415.19;5023041;28;20053;-81
2024/02/03 06:41:51;;;;;;;35.08;19.85;;;9.40;99.90;;;9.16;99.21;101416.38;5039703;28;20099;-81
2024/02/03 06:44:19;;;;;;;32.53;19.13;;;9.30;99.90;;;9.15;99.46;101420.06;5040225;28;20041;-83
2024/02/03 06:46:46;;;;;;;37.17;18.63;;;9.40;99.90;;;9.16;99.67;101419.03;5056412;28;20483;-85
2024/02/03 06:49:14;;;;;;;29.35;17.50;;;9.40;99.90;;;9.19;99.92;101412.53;5003402;28;20103;-84
2024/02/03 06:51:42;;;;;;;28.95;17.02;;;9.40;99.90;;;9.22;99.50;101414.81;5004322;28;20075;-84
2024/02/03 06:54:09;;;;;;;29.35;16.60;;;9.40;99.90;;;9.17;99.41;101417.19;5038693;28;20045;-84
2024/02/03 06:56:38;;;;;;;33.00;17.83;;;9.40;99.90;;;9.17;99.72;101420.69;5053502;28;20037;-84
2024/02/03 06:59:06;;;;;;;36.45;18.95;;;9.40;99.90;;;9.13;99.84;101424.72;5037237;28;20516;-84
2024/02/03 07:01:33;;;;;;;31.52;18.08;;;9.40;99.90;;;9.12;100.00;101415.06;5003526;28;20107;-85
2024/02/03 07:04:01;;;;;;;40.38;20.40;;;9.40;99.90;;;9.15;100.00;101409.41;5036982;28;20529;-84
2024/02/03 07:06:28;;;;;;;42.00;21.95;;;9.40;99.90;;;9.14;100.00;101415.75;5019965;28;20501;-84
2024/02/03 07:08:56;;;;;;;42.05;23.05;;;9.40;99.90;;;9.15;100.00;101421.88;5003777;28;20041;-84
2024/02/03 07:11:23;;;;;;;34.20;20.50;;;9.40;99.90;;;9.15;100.00;101422.72;5054001;28;20053;-85
2024/02/03 07:13:52;;;;;;;38.15;21.23;;;9.70;99.90;;;9.14;100.00;101413.06;5020403;28;20580;-85
2024/02/03 07:16:20;;;;;;;37.78;20.50;;;9.40;99.90;;;9.16;100.00;101411.06;5036237;28;20068;-85
2024/02/03 07:18:47;;;;;;;40.90;22.10;;;9.40;99.90;;;9.19;100.00;101409.88;5019965;28;20128;-85
2024/02/03 07:21:15;;;;;;;37.97;21.08;;;9.40;99.90;;;9.18;100.00;101409.06;5051919;28;20049;-84
2024/02/03 07:23:43;;;;;;;36.28;19.73;;;9.40;99.90;;;9.20;100.00;101422.19;5037637;28;20064;-86
2024/02/03 07:26:12;;;;;;;35.65;20.00;;;9.40;99.90;;;9.19;100.00;101418.69;5034479;28;20065;-86
2024/02/03 07:28:39;;;;;;;40.08;21.10;;;9.40;99.90;;;9.19;100.00;101424.00;5000750;28;20547;-86
2024/02/03 07:31:12;;;;;;;38.72;20.65;;;9.50;99.90;;;9.24;100.00;101423.47;5019753;28;20467;-82
2024/02/03 07:33:39;;;;;;;31.80;18.48;;;9.40;99.90;;;9.23;100.00;101422.66;5041672;28;20046;-81
2024/02/03 07:36:08;;;;;;;31.08;18.25;;;9.50;99.90;;;9.23;100.00;101411.19;5041820;28;20076;-81
2024/02/03 07:38:36;;;;;;;35.28;18.45;;;9.50;99.90;;;9.23;100.00;101420.00;5006477;28;20050;-83
2024/02/03 07:41:03;;;;;;;38.55;20.15;;;9.50;99.90;;;9.23;100.00;101429.81;5006140;28;20047;-82
2024/02/03 07:43:31;;;;;;;36.45;19.17;;;9.50;99.90;;;9.22;100.00;101434.31;5041338;28;20049;-83
2024/02/03 07:45:58;;;;;;;29.35;16.52;;;9.50;99.90;;;9.13;100.00;101431.91;5023472;28;20068;-82
2024/02/03 07:48:27;;;;;;;34.47;18.73;;;9.40;99.90;;;9.18;100.00;101427.69;5014085;28;20051;-82
2024/02/03 07:50:54;;;;;;;33.83;17.67;;;9.50;99.90;;;9.17;100.00;101428.66;5020590;28;20041;-85
2024/02/03 07:53:22;;;;;;;40.63;18.98;;;9.50;99.90;;;9.18;100.00;101422.38;5002910;28;20148;-85
2024/02/03 07:55:50;;;;;;;35.53;19.05;;;9.40;99.90;;;9.20;100.00;101422.19;5035036;28;20055;-88
2024/02/03 07:58:18;;;;;;;36.05;18.55;;;9.40;99.90;;;9.22;100.00;101429.00;5049678;28;20080;-87
2024/02/03 08:00:46;;;;;;;39.22;19.60;;;9.50;99.90;;;9.24;100.00;101418.97;5016467;28;20151;-88
2024/02/03 08:03:13;;;;;;;34.80;19.95;;;9.50;99.90;;;9.22;100.00;101423.66;5016721;28;20041;-88
2024/02/03 08:05:42;;;;;;;38.05;20.67;;;9.50;99.90;;;9.23;100.00;101430.63;5034207;28;20072;-89
2024/02/03 08:08:10;;;;;;;50.83;22.05;;;9.50;99.90;;;9.23;100.00;101435.97;5049886;28;20068;-89
2024/02/03 08:10:38;;;;;;;40.92;23.60;;;9.50;99.90;;;9.23;100.00;101425.31;5016672;28;20583;-89
2024/02/03 08:13:07;;;;;;;47.08;24.30;;;9.50;99.90;;;9.26;100.00;101434.75;5034837;28;20091;-86
2024/02/03 08:15:35;;;;;;;47.40;25.55;;;9.50;99.90;;;9.28;100.00;101440.75;5036401;28;20056;-85
2024/02/03 08:18:04;;;;;;;51.10;26.55;;;9.60;99.90;;;9.31;100.00;101434.22;5036341;28;20497;-86
2024/02/03 08:20:32;;;;;;;57.83;28.73;;;9.60;99.90;;;9.32;100.00;101435.88;4970220;28;20140;-85
2024/02/03 08:23:01;;;;;;;75.43;30.55;;;9.60;99.90;;;9.34;100.00;101436.53;5031395;28;20049;-83
2024/02/03 08:25:29;;;;;;;54.95;29.48;;;9.60;99.90;;;9.32;100.00;101431.41;5016866;28;20077;-82
2024/02/03 08:27:57;;;;;;;62.70;29.83;;;9.60;99.90;;;9.34;100.00;101437.38;4985113;28;20053;-82
2024/02/03 08:30:24;;;;;;;55.45;29.45;;;9.50;99.90;;;9.36;100.00;101431.84;5035486;28;20049;-82
2024/02/03 08:32:52;;;;;;;61.25;30.98;;;9.60;99.90;;;9.36;100.00;101435.34;5051329;28;20045;-82
2024/02/03 08:35:19;;;;;;;54.10;30.02;;;9.60;99.90;;;9.38;100.00;101438.66;5034578;28;20567;-82
2024/02/03 08:37:47;;;;;;;61.88;32.67;;;9.60;99.90;;;9.40;100.00;101436.66;5023854;28;20121;-82
2024/02/03 08:40:18;;;;;;;60.50;32.10;;;9.60;99.90;;;9.36;100.00;101437.19;5015217;28;20042;-82
2024/02/03 08:42:46;;;;;;;62.50;34.05;;;9.60;99.90;;;9.37;100.00;101442.34;5014551;28;20054;-82
2024/02/03 08:45:13;;;;;;;71.38;35.95;;;9.60;99.90;;;9.36;100.00;101442.50;5032083;28;20041;-83
2024/02/03 08:47:41;;;;;;;64.63;34.97;;;9.60;99.90;;;9.37;100.00;101442.34;5018137;28;20041;-85
2024/02/03 08:50:09;;;;;;;63.63;34.28;;;9.60;99.90;;;9.41;100.00;101434.81;5035111;28;20127;-82
2024/02/03 08:52:36;;;;;;;59.72;32.95;;;9.70;99.90;;;9.41;100.00;101440.13;5017967;28;20065;-81
2024/02/03 08:55:04;;;;;;;60.60;32.00;;;9.70;99.90;;;9.36;100.00;101443.31;5036419;28;20045;-81
2024/02/03 08:57:35;;;;;;;64.93;33.38;;;9.70;99.90;;;9.40;100.00;101449.13;5037831;28;20386;-82
2024/02/03 09:00:04;;;;;;;68.95;34.00;;;9.70;99.90;;;9.40;100.00;101449.97;5035869;28;20045;-82
2024/02/03 09:02:32;;;;;;;68.60;35.25;;;9.70;99.90;;;9.42;100.00;101449.75;5018286;28;20049;-84
2024/02/03 09:05:00;;;;;;;64.43;34.47;;;9.70;99.90;;;9.44;100.00;101445.09;5016297;28;20124;-84
2024/02/03 09:07:28;;;;;;;66.13;35.67;;;9.70;99.90;;;9.46;100.00;101448.41;5019734;28;20041;-81
2024/02/03 09:09:55;;;;;;;59.30;33.67;;;9.70;99.90;;;9.46;100.00;101456.41;5019053;28;20042;-81
2024/02/03 09:12:23;;;;;;;59.10;34.15;;;9.70;99.90;;;9.49;100.00;101456.88;5019135;28;20132;-81
2024/02/03 09:14:53;;;;;;;70.00;36.45;;;9.80;99.90;;;9.50;100.00;101458.53;5037651;28;20049;-81
2024/02/03 09:17:20;;;;;;;66.55;36.40;;;9.80;99.90;;;9.49;100.00;101470.19;5037785;28;20056;-81
2024/02/03 09:19:51;;;;;;;66.72;35.63;;;10.00;99.90;;;9.54;100.00;101462.47;5039135;28;20072;-81
2024/02/03 09:22:18;;;;;;;61.83;35.33;;;9.80;99.90;;;9.54;100.00;101472.31;5038345;28;20053;-81
2024/02/03 09:24:46;;;;;;;58.88;34.97;;;9.80;99.90;;;9.54;100.00;101467.81;5038203;28;20124;-81
2024/02/03 09:27:13;;;;;;;65.53;37.63;;;9.80;99.90;;;9.57;100.00;101469.31;5037862;28;20041;-81
2024/02/03 09:29:41;;;;;;;66.43;37.08;;;9.80;99.90;;;9.60;100.00;101471.59;5020205;28;20128;-81
2024/02/03 09:32:10;;;;;;;69.75;38.30;;;9.80;99.90;;;9.61;100.00;101467.09;5019807;28;20073;-81
2024/02/03 09:34:38;;;;;;;65.47;38.22;;;9.90;99.90;;;9.59;100.00;101464.59;5019551;28;20045;-81
2024/02/03 09:37:09;;;;;;;74.75;40.00;;;9.80;99.90;;;9.60;100.00;101455.59;5004373;28;20048;-81
2024/02/03 09:39:37;;;;;;;69.70;38.70;;;9.90;99.90;;;9.63;100.00;101457.09;5038792;28;20100;-81
2024/02/03 09:42:05;;;;;;;79.70;40.55;;;9.90;99.90;;;9.65;100.00;101469.22;5037639;28;20053;-81
2024/02/03 09:44:33;;;;;;;69.82;39.97;;;9.90;99.90;;;9.64;100.00;101462.22;5039055;28;20064;-81
2024/02/03 09:47:01;;;;;;;74.30;42.50;;;9.90;99.90;;;9.64;100.00;101464.91;5020402;28;20076;-81
2024/02/03 09:49:30;;;;;;;87.45;41.45;;;9.90;99.90;;;9.65;100.00;101461.22;5038152;28;20120;-81
2024/02/03 09:51:59;;;;;;;83.32;42.22;;;9.90;99.90;;;9.66;100.00;101464.72;5038132;28;20075;-81
2024/02/03 09:54:28;;;;;;;84.20;43.35;;;9.90;99.90;;;9.66;100.00;101460.22;5020832;28;20056;-81
2024/02/03 09:56:55;;;;;;;80.07;42.72;;;9.90;99.90;;;9.66;100.00;101465.56;5020616;28;20041;-81
2024/02/03 09:59:22;;;;;;;79.53;41.25;;;9.90;99.90;;;9.67;100.00;101459.22;5019855;28;20045;-81
2024/02/03 10:01:50;;;;;;;73.10;40.58;;;9.90;99.90;;;9.68;100.00;101468.03;5038204;28;20095;-81
2024/02/03 10:04:18;;;;;;;87.43;42.45;;;9.90;99.90;;;9.68;100.00;101460.88;5003146;28;20037;-81
2024/02/03 10:06:47;;;;;;;88.47;41.67;;;9.90;99.90;;;9.69;100.00;101464.34;5019523;28;20045;-81
2024/02/03 10:09:25;;;;;;;86.10;39.80;;;9.90;99.90;;;9.68;100.00;101466.19;5040336;28;20041;-81
2024/02/03 10:11:56;;;;;;;71.57;37.38;;;9.90;99.90;;;9.66;100.00;101472.69;5022039;28;20049;-81
2024/02/03 10:14:23;;;;;;;75.70;37.27;;;9.90;99.90;;;9.66;100.00;101470.03;4975490;28;20493;-81